Portada
METAR-TAF:

METAR-TAF

Aeroports :

Estocolm-Arlanda, Suècia

latitud: 59-39N, longitud: 017-57E, altitud: 38 m

Observació

L'informe es va fer fa 16 minuts, a les 13:50 UTC
Vent 12 kt del Oest/Sud-Oest
Temperatura 20°C
Humitat 49%
Pressió 1011 hPa
Visibilitat 10 km o més
Núvols disperses a una alçada de 4900 ft

METAR: ESSA 191350Z 25012KT 9999 SCT049 20/09 Q1011 NOSIG

Hora: 16:06 (14:06 UTC)

Pronòstic

L'informe es va fer fa 2 hores i 36 minuts, a les 11:30 UTC
Pronòstic vàlid del 19 a les 12 UTC al 20 a les 12 UTC
Vent 13 kt del Oest/Sud-Oest amb ràfegues de 23 kt
Visibilitat 10 km o més
sense núvols per sota de 1500 mi sense presència de cumulonimbus.
Evolucionant progressivament
l' 20 a les 00 UTC al 20 a les 02 UTC
Vent 2 kt del Oest/Sud-Oest
Evolucionant progressivament
l' 20 a les 06 UTC al 20 a les 08 UTC
Vent 12 kt del Nord/Nord-Est

TAF: ESSA 191130Z 1912/2012 25013G23KT CAVOK BECMG 2000/2002 24002KT BECMG 2006/2008 02012KT

Observacions i pronòstics meteorològics de més de 4000 aeroports (METAR i TAF).

Les estacions disponibles són els punts grocs i vermells al mapa.

Posi el ratolí al punt desitjat per veure el nom de l'estació.

Feu clic per veure les observacions i els pronòstics meteorològics.

Per canviar el mapa: feu clic els botons verds amb una creu de color negre per apropar; al botó verd amb un guió per allunyar la imatge; o en les fletxes verdes per a mapes adjacents.


METAR-TAF: